Time;durP1;ratioP1;P1;durP2;ratioP2;P2;SDS_P1;SDS_P2;PMS_P1;PMS_P2;Temp;Humidity;BMP_temperature;BMP_pressure;BME280_temperature;BME280_humidity;BME280_pressure;Samples;Min_cycle;Max_cycle;Signal;HPM_P1;HPM_P2
2024/02/18 00:00:32;;;;;;;65.13;34.75;;;9.10;99.90;;;;;;5076113;28;20060;-69
2024/02/18 00:02:58;;;;;;;67.15;35.38;;;9.10;99.90;;;;;;5076058;28;20414;-68
2024/02/18 00:05:24;;;;;;;57.30;32.85;;;9.10;99.90;;;;;;5075948;28;20505;-68
2024/02/18 00:07:49;;;;;;;59.58;33.95;;;9.10;99.90;;;;;;5075714;28;20437;-68
2024/02/18 00:10:15;;;;;;;73.68;37.00;;;9.10;99.90;;;;;;5075933;28;20039;-68
2024/02/18 00:12:41;;;;;;;67.70;34.90;;;9.10;99.90;;;;;;5075883;28;20367;-68
2024/02/18 00:15:06;;;;;;;61.28;34.63;;;9.10;99.90;;;;;;5075871;28;20504;-68
2024/02/18 00:17:32;;;;;;;54.90;31.92;;;9.10;99.90;;;;;;5075636;28;20037;-68
2024/02/18 00:19:58;;;;;;;49.40;30.58;;;9.10;99.90;;;;;;5075811;28;20082;-68
2024/02/18 00:22:24;;;;;;;55.70;30.45;;;9.10;99.90;;;;;;5075784;28;20036;-68
2024/02/18 00:24:51;;;;;;;54.50;32.58;;;9.20;99.90;;;;;;5075303;28;20049;-68
2024/02/18 00:27:17;;;;;;;56.97;33.30;;;9.20;99.90;;;;;;5074246;28;20402;-68
2024/02/18 00:29:42;;;;;;;79.55;47.47;;;9.20;99.90;;;;;;5075596;28;20033;-68
2024/02/18 00:32:08;;;;;;;77.60;40.72;;;9.20;99.90;;;;;;5075258;28;20024;-68
2024/02/18 00:34:34;;;;;;;85.63;44.55;;;9.20;99.90;;;;;;5075522;28;20077;-68
2024/02/18 00:36:59;;;;;;;81.55;39.50;;;9.20;99.90;;;;;;5075489;28;20077;-68
2024/02/18 00:39:25;;;;;;;76.78;38.10;;;9.20;99.90;;;;;;5075007;28;20527;-68
2024/02/18 00:41:51;;;;;;;71.97;39.08;;;9.20;99.90;;;;;;5075268;28;20040;-68
2024/02/18 00:44:17;;;;;;;93.82;51.63;;;9.20;99.90;;;;;;5074952;28;20403;-68
2024/02/18 00:46:43;;;;;;;89.53;49.15;;;9.20;99.90;;;;;;5075131;28;20031;-68
2024/02/18 00:49:08;;;;;;;81.57;48.20;;;9.20;99.90;;;;;;5075285;28;20024;-68
2024/02/18 00:51:34;;;;;;;80.93;43.65;;;9.20;99.90;;;;;;5075193;28;20052;-68
2024/02/18 00:54:00;;;;;;;75.00;40.10;;;9.10;99.90;;;;;;5075112;28;20043;-68
2024/02/18 00:56:25;;;;;;;68.20;38.00;;;9.20;99.90;;;;;;5075106;28;20124;-68
2024/02/18 00:58:53;;;;;;;72.28;34.58;;;9.10;99.90;;;;;;5075114;28;20078;-68
2024/02/18 01:01:18;;;;;;;64.43;35.00;;;9.10;99.90;;;;;;5074651;28;20031;-68
2024/02/18 01:03:45;;;;;;;63.17;33.25;;;9.10;99.90;;;;;;5074720;28;20032;-68
2024/02/18 01:06:12;;;;;;;62.38;34.40;;;9.10;99.90;;;;;;5074813;28;20029;-67
2024/02/18 01:08:37;;;;;;;58.28;30.98;;;9.10;99.90;;;;;;5074771;28;20378;-67
2024/02/18 01:11:03;;;;;;;67.22;33.55;;;9.10;99.90;;;;;;5074794;28;20052;-68
2024/02/18 01:13:29;;;;;;;65.22;33.08;;;9.10;99.90;;;;;;5074736;28;20040;-68
2024/02/18 01:15:55;;;;;;;67.97;32.42;;;9.10;99.90;;;;;;5074757;28;20119;-68
2024/02/18 01:18:20;;;;;;;54.25;30.30;;;9.20;99.90;;;;;;5074805;28;20025;-68
2024/02/18 01:20:46;;;;;;;57.40;31.35;;;9.20;99.90;;;;;;5074466;28;20028;-68
2024/02/18 01:23:12;;;;;;;61.60;30.27;;;9.20;99.90;;;;;;5074563;28;20029;-68
2024/02/18 01:25:38;;;;;;;61.38;31.65;;;9.20;99.90;;;;;;5073860;28;20040;-68
2024/02/18 01:28:04;;;;;;;57.40;30.48;;;9.20;99.90;;;;;;5074053;28;20116;-68
2024/02/18 01:30:30;;;;;;;60.92;30.83;;;9.20;99.90;;;;;;5074446;28;20478;-68
2024/02/18 01:32:56;;;;;;;63.35;31.27;;;9.20;99.90;;;;;;5074330;28;20032;-68
2024/02/18 01:35:21;;;;;;;67.30;29.45;;;9.30;99.90;;;;;;5074089;28;20111;-68
2024/02/18 01:37:48;;;;;;;53.90;27.95;;;9.30;99.90;;;;;;5073717;28;20111;-68
2024/02/18 01:40:14;;;;;;;46.08;25.98;;;9.30;99.90;;;;;;5074210;28;20095;-68
2024/02/18 01:42:40;;;;;;;51.00;26.40;;;9.40;99.90;;;;;;5073667;28;20020;-68
2024/02/18 01:45:08;;;;;;;50.50;25.33;;;9.50;99.90;;;;;;5074246;28;20090;-68
2024/02/18 01:47:36;;;;;;;55.08;25.00;;;9.50;99.90;;;;;;5073886;28;20390;-69
2024/02/18 01:50:03;;;;;;;44.20;23.25;;;9.50;99.90;;;;;;5074054;28;20032;-68
2024/02/18 01:52:29;;;;;;;46.13;23.33;;;9.60;99.90;;;;;;5073857;28;20107;-69
2024/02/18 01:54:56;;;;;;;49.97;23.80;;;9.60;99.90;;;;;;5074039;28;20473;-69
2024/02/18 01:57:24;;;;;;;42.60;22.15;;;9.70;99.90;;;;;;5074010;28;20124;-69
2024/02/18 01:59:50;;;;;;;43.75;21.88;;;9.80;99.90;;;;;;5073915;28;20055;-69
2024/02/18 02:02:16;;;;;;;43.95;22.30;;;9.80;99.90;;;;;;5073762;28;20079;-69
2024/02/18 02:04:41;;;;;;;42.65;21.48;;;9.80;99.90;;;;;;5073644;28;20035;-69
2024/02/18 02:07:07;;;;;;;39.90;21.33;;;9.80;99.90;;;;;;5073559;28;20484;-69
2024/02/18 02:09:33;;;;;;;44.35;22.13;;;9.80;99.90;;;;;;5073303;28;20023;-69
2024/02/18 02:11:59;;;;;;;46.05;22.52;;;9.80;99.90;;;;;;5073265;28;20393;-69
2024/02/18 02:14:24;;;;;;;41.22;21.23;;;9.90;99.90;;;;;;5073117;28;20025;-68
2024/02/18 02:16:50;;;;;;;42.85;20.58;;;9.90;99.90;;;;;;5073704;28;20029;-69
2024/02/18 02:19:16;;;;;;;41.35;20.90;;;9.90;99.90;;;;;;5073298;28;20060;-69
2024/02/18 02:21:41;;;;;;;41.38;20.17;;;9.90;99.90;;;;;;5073474;28;20028;-69
2024/02/18 02:24:07;;;;;;;41.83;22.35;;;10.00;99.90;;;;;;5072830;28;20044;-69
2024/02/18 02:26:41;;;;;;;40.25;20.02;;;9.90;99.90;;;;;;5073326;28;20075;-68
2024/02/18 02:29:11;;;;;;;39.35;19.23;;;9.90;99.90;;;;;;5073440;28;20116;-69
2024/02/18 02:31:40;;;;;;;39.88;20.00;;;10.00;99.90;;;;;;5073364;28;20424;-69
2024/02/18 02:34:06;;;;;;;43.95;19.05;;;9.90;99.90;;;;;;5073315;28;20028;-69
2024/02/18 02:36:31;;;;;;;39.28;19.27;;;9.90;99.90;;;;;;5073347;28;20028;-69
2024/02/18 02:38:58;;;;;;;39.53;18.80;;;9.90;99.90;;;;;;5073184;28;20020;-69
2024/02/18 02:41:24;;;;;;;36.03;18.92;;;9.90;99.90;;;;;;5073096;28;20036;-68
2024/02/18 02:43:50;;;;;;;40.65;18.55;;;9.80;99.90;;;;;;5072968;28;20102;-69
2024/02/18 02:46:15;;;;;;;36.58;18.52;;;9.80;99.90;;;;;;5072663;28;20033;-69
2024/02/18 02:48:41;;;;;;;32.03;18.75;;;9.80;99.90;;;;;;5073180;28;20029;-69
2024/02/18 02:51:07;;;;;;;35.95;17.83;;;9.90;99.90;;;;;;5072807;28;20025;-69
2024/02/18 02:53:33;;;;;;;32.92;17.52;;;9.90;99.90;;;;;;5073278;28;20466;-69
2024/02/18 02:56:00;;;;;;;41.40;18.58;;;9.90;99.90;;;;;;5072983;28;20075;-69
2024/02/18 02:58:26;;;;;;;39.85;18.85;;;9.80;99.90;;;;;;5073154;28;20028;-69
2024/02/18 03:00:52;;;;;;;35.22;17.02;;;9.80;99.90;;;;;;5072966;28;20312;-69
2024/02/18 03:03:17;;;;;;;36.25;16.75;;;9.90;99.90;;;;;;5072931;28;20600;-69
2024/02/18 03:05:43;;;;;;;33.17;18.02;;;9.80;99.90;;;;;;5073169;28;20028;-68
2024/02/18 03:08:09;;;;;;;33.58;17.23;;;9.90;99.90;;;;;;5072684;28;20470;-68
2024/02/18 03:10:37;;;;;;;30.75;16.55;;;9.90;99.90;;;;;;5072974;28;20472;-68
2024/02/18 03:13:03;;;;;;;35.90;16.42;;;9.90;99.90;;;;;;5072961;28;20031;-68
2024/02/18 03:15:29;;;;;;;33.20;16.00;;;9.90;99.90;;;;;;5072838;28;20071;-68
2024/02/18 03:17:56;;;;;;;29.80;15.10;;;10.00;99.90;;;;;;5072954;28;20071;-69
2024/02/18 03:20:22;;;;;;;27.45;15.52;;;10.00;99.90;;;;;;5072974;28;20162;-69
2024/02/18 03:22:49;;;;;;;31.58;14.93;;;9.90;99.90;;;;;;5072338;28;20039;-69
2024/02/18 03:25:15;;;;;;;30.33;14.88;;;9.90;99.90;;;;;;5072441;28;20049;-69
2024/02/18 03:27:41;;;;;;;30.60;15.35;;;10.00;99.90;;;;;;5072504;28;20047;-69
2024/02/18 03:30:07;;;;;;;30.38;15.20;;;9.90;99.90;;;;;;5072543;28;20021;-68
2024/02/18 03:32:36;;;;;;;37.55;17.00;;;9.90;99.90;;;;;;5072546;28;20399;-69
2024/02/18 03:35:04;;;;;;;28.33;15.43;;;9.90;99.90;;;;;;5072435;28;20025;-69
2024/02/18 03:37:30;;;;;;;26.10;15.18;;;9.90;99.90;;;;;;5072681;28;20028;-69
2024/02/18 03:39:56;;;;;;;28.58;15.27;;;10.00;99.90;;;;;;5072694;28;20390;-69
2024/02/18 03:42:21;;;;;;;27.13;14.45;;;9.90;99.90;;;;;;5072780;28;20036;-69
2024/02/18 03:44:47;;;;;;;24.23;14.82;;;10.00;99.90;;;;;;5072425;28;20115;-68
2024/02/18 03:47:13;;;;;;;30.52;14.00;;;10.00;99.90;;;;;;5072313;28;20028;-69
2024/02/18 03:49:38;;;;;;;32.22;14.45;;;10.00;99.90;;;;;;5072318;28;20028;-69
2024/02/18 03:52:04;;;;;;;32.13;14.23;;;10.00;99.90;;;;;;5072178;28;20028;-69
2024/02/18 03:54:30;;;;;;;29.67;14.13;;;10.00;99.90;;;;;;5072311;28;20021;-69
2024/02/18 03:56:56;;;;;;;26.58;14.85;;;10.00;99.90;;;;;;5072480;28;20040;-69
2024/02/18 03:59:21;;;;;;;31.25;13.93;;;10.00;99.90;;;;;;5072481;28;20033;-69
2024/02/18 04:01:48;;;;;;;28.48;13.68;;;10.00;99.90;;;;;;5073208;28;20029;-69
2024/02/18 04:04:14;;;;;;;26.73;13.95;;;10.00;99.90;;;;;;5075923;28;20064;-69
2024/02/18 04:06:40;;;;;;;29.98;14.45;;;10.00;99.90;;;;;;5075726;28;20031;-68
2024/02/18 04:09:06;;;;;;;26.58;13.80;;;10.00;99.90;;;;;;5075921;28;20107;-69
2024/02/18 04:11:32;;;;;;;23.35;13.63;;;10.00;99.90;;;;;;5075951;28;20024;-69
2024/02/18 04:13:57;;;;;;;29.15;14.13;;;10.00;99.90;;;;;;5075701;28;20078;-69
2024/02/18 04:16:23;;;;;;;31.88;14.77;;;10.00;99.90;;;;;;5075726;28;20032;-69
2024/02/18 04:18:49;;;;;;;27.70;14.02;;;10.00;99.90;;;;;;5075561;28;20033;-68
2024/02/18 04:21:14;;;;;;;26.42;13.73;;;10.00;99.90;;;;;;5075714;28;20078;-69
2024/02/18 04:23:40;;;;;;;26.02;13.85;;;10.00;99.90;;;;;;5075485;28;20102;-68
2024/02/18 04:26:06;;;;;;;30.63;15.25;;;10.00;99.90;;;;;;5075523;28;20032;-68
2024/02/18 04:28:32;;;;;;;30.63;13.93;;;10.00;99.90;;;;;;5075435;28;20059;-68
2024/02/18 04:30:58;;;;;;;32.80;14.75;;;10.00;99.90;;;;;;5075537;28;20417;-68
2024/02/18 04:33:24;;;;;;;30.55;13.65;;;10.00;99.90;;;;;;5075642;28;20017;-68
2024/02/18 04:35:50;;;;;;;29.35;13.45;;;10.00;99.90;;;;;;5075492;28;20024;-68
2024/02/18 04:38:15;;;;;;;31.23;13.73;;;10.00;99.90;;;;;;5075201;28;20474;-68
2024/02/18 04:40:41;;;;;;;29.98;14.55;;;10.00;99.90;;;;;;5075357;28;20579;-68
2024/02/18 04:43:09;;;;;;;26.00;13.52;;;10.00;99.90;;;;;;5075124;28;20024;-68
2024/02/18 04:45:35;;;;;;;27.52;13.23;;;10.00;99.90;;;;;;5075177;28;20032;-68
2024/02/18 04:48:01;;;;;;;26.23;13.77;;;10.00;99.90;;;;;;5074733;28;20032;-68
2024/02/18 04:50:26;;;;;;;25.60;13.85;;;10.00;99.90;;;;;;5075219;28;20479;-68
2024/02/18 04:52:52;;;;;;;27.23;13.48;;;9.90;99.90;;;;;;5075143;28;20025;-68
2024/02/18 04:55:18;;;;;;;27.00;13.60;;;9.90;99.90;;;;;;5075066;28;20024;-68
2024/02/18 04:57:43;;;;;;;28.75;14.18;;;10.00;99.90;;;;;;5074582;28;20123;-68
2024/02/18 05:00:10;;;;;;;28.17;13.45;;;9.90;99.90;;;;;;5074611;28;20594;-68
2024/02/18 05:02:36;;;;;;;24.38;13.75;;;9.90;99.90;;;;;;5074905;28;20032;-68
2024/02/18 05:05:02;;;;;;;24.60;12.27;;;9.90;99.90;;;;;;5074959;28;20056;-68
2024/02/18 05:07:30;;;;;;;26.48;13.50;;;9.80;99.90;;;;;;5074561;28;20169;-68
2024/02/18 05:09:55;;;;;;;27.00;12.90;;;9.80;99.90;;;;;;5074404;28;20089;-68
2024/02/18 05:12:21;;;;;;;27.38;12.85;;;9.80;99.90;;;;;;5074387;28;20142;-68
2024/02/18 05:14:47;;;;;;;18.80;11.32;;;9.80;99.90;;;;;;5074627;28;20028;-68
2024/02/18 05:17:12;;;;;;;21.77;12.40;;;9.80;99.90;;;;;;5074500;28;20105;-68
2024/02/18 05:19:38;;;;;;;22.15;12.05;;;9.80;99.90;;;;;;5074611;28;20405;-68
2024/02/18 05:22:04;;;;;;;25.40;12.90;;;9.70;99.90;;;;;;5074605;28;20035;-68
2024/02/18 05:24:32;;;;;;;24.60;12.50;;;9.70;99.90;;;;;;5073882;28;20082;-67
2024/02/18 05:26:58;;;;;;;25.73;12.75;;;9.70;99.90;;;;;;5074311;28;20107;-68
2024/02/18 05:29:23;;;;;;;24.00;12.23;;;9.80;99.90;;;;;;5074431;28;20021;-68
2024/02/18 05:31:50;;;;;;;24.63;11.10;;;9.70;99.90;;;;;;5074254;28;20021;-68
2024/02/18 05:34:16;;;;;;;23.63;11.73;;;9.80;99.90;;;;;;5074255;28;20094;-68
2024/02/18 05:36:43;;;;;;;20.65;11.20;;;9.70;99.90;;;;;;5073983;28;20033;-68
2024/02/18 05:39:10;;;;;;;21.80;11.35;;;9.70;99.90;;;;;;5074162;28;20029;-69
2024/02/18 05:41:36;;;;;;;22.55;11.32;;;9.70;99.90;;;;;;5074155;28;20516;-69
2024/02/18 05:44:01;;;;;;;20.45;10.88;;;9.70;99.90;;;;;;5074160;28;20024;-68
2024/02/18 05:46:27;;;;;;;24.20;11.15;;;9.70;99.90;;;;;;5073757;28;20115;-69
2024/02/18 05:48:53;;;;;;;20.92;10.65;;;9.70;99.90;;;;;;5073988;28;20079;-68
2024/02/18 05:51:18;;;;;;;17.25;10.05;;;9.70;99.90;;;;;;5073866;28;20025;-68
2024/02/18 05:53:44;;;;;;;16.73;9.77;;;9.70;99.90;;;;;;5073803;28;20040;-68
2024/02/18 05:56:10;;;;;;;19.52;10.40;;;9.70;99.90;;;;;;5073278;28;20017;-69
2024/02/18 05:58:35;;;;;;;16.35;9.38;;;9.70;99.90;;;;;;5073764;28;20403;-68
2024/02/18 06:01:01;;;;;;;20.20;10.35;;;9.70;99.90;;;;;;5073332;28;20051;-68
2024/02/18 06:03:27;;;;;;;17.20;9.40;;;9.70;99.90;;;;;;5073674;28;20016;-69
2024/02/18 06:05:52;;;;;;;19.83;10.35;;;9.70;99.90;;;;;;5074097;28;20356;-68
2024/02/18 06:08:18;;;;;;;18.95;9.57;;;9.70;99.90;;;;;;5073560;28;20478;-69
2024/02/18 06:10:44;;;;;;;15.57;10.10;;;9.70;99.90;;;;;;5073305;28;20107;-69
2024/02/18 06:13:09;;;;;;;19.83;9.38;;;9.70;99.20;;;;;;5073585;28;20032;-68
2024/02/18 06:15:35;;;;;;;19.90;9.18;;;9.70;97.10;;;;;;5073452;28;20033;-68
2024/02/18 06:18:00;;;;;;;16.25;9.00;;;9.70;96.40;;;;;;5073351;28;20029;-68
2024/02/18 06:20:27;;;;;;;16.15;8.80;;;9.70;92.30;;;;;;5073424;28;20020;-68
2024/02/18 06:22:53;;;;;;;18.85;8.75;;;9.70;93.20;;;;;;5073555;28;20021;-69
2024/02/18 06:25:19;;;;;;;20.50;8.68;;;9.60;93.40;;;;;;5072204;28;20503;-68
2024/02/18 06:27:47;;;;;;;14.90;8.57;;;9.70;90.00;;;;;;5072863;28;20036;-68
2024/02/18 06:30:13;;;;;;;14.85;8.68;;;9.70;89.20;;;;;;5073345;28;20386;-68
2024/02/18 06:32:38;;;;;;;14.93;8.85;;;9.70;82.90;;;;;;5073326;28;20489;-69
2024/02/18 06:35:04;;;;;;;16.75;8.57;;;9.70;86.10;;;;;;5072866;28;20079;-68
2024/02/18 06:37:30;;;;;;;21.23;8.77;;;9.70;87.50;;;;;;5073412;28;20113;-68
2024/02/18 06:39:56;;;;;;;18.42;9.18;;;9.70;87.20;;;;;;5073031;28;20075;-68
2024/02/18 06:42:21;;;;;;;13.88;8.07;;;9.70;80.90;;;;;;5073352;28;20367;-68
2024/02/18 06:44:47;;;;;;;18.98;8.30;;;9.70;78.50;;;;;;5073372;28;20436;-69
2024/02/18 06:47:13;;;;;;;17.27;7.78;;;9.70;79.70;;;;;;5073177;28;20024;-68
2024/02/18 06:49:39;;;;;;;18.88;8.82;;;9.70;77.80;;;;;;5073146;28;20065;-68
2024/02/18 06:52:05;;;;;;;17.10;8.32;;;9.70;68.40;;;;;;5073135;28;20029;-68
2024/02/18 06:54:30;;;;;;;15.90;7.78;;;9.70;61.50;;;;;;5073200;28;20024;-68
2024/02/18 06:56:56;;;;;;;17.67;8.82;;;9.70;58.60;;;;;;5073039;28;20032;-69
2024/02/18 06:59:22;;;;;;;15.23;7.93;;;9.70;56.40;;;;;;5073020;28;20082;-69
2024/02/18 07:01:48;;;;;;;12.60;7.57;;;9.80;49.10;;;;;;5073024;28;20036;-69
2024/02/18 07:04:13;;;;;;;14.18;8.23;;;9.80;49.20;;;;;;5072899;28;20121;-68
2024/02/18 07:06:39;;;;;;;12.88;7.50;;;9.80;48.90;;;;;;5072880;28;20035;-68
2024/02/18 07:09:05;;;;;;;15.05;6.78;;;9.80;49.40;;;;;;5072943;28;20039;-68
2024/02/18 07:11:31;;;;;;;15.40;6.97;;;9.80;42.90;;;;;;5072934;28;20024;-68
2024/02/18 07:13:57;;;;;;;16.80;7.60;;;9.80;41.50;;;;;;5072935;28;20052;-68
2024/02/18 07:16:23;;;;;;;11.63;6.95;;;9.90;32.50;;;;;;5072957;28;20567;-69
2024/02/18 07:18:48;;;;;;;13.13;7.35;;;9.90;26.30;;;;;;5072366;28;20488;-69
2024/02/18 07:21:14;;;;;;;15.40;7.20;;;9.90;27.40;;;;;;5072723;28;20033;-69
2024/02/18 07:23:41;;;;;;;15.23;7.07;;;9.90;27.00;;;;;;5072655;28;20075;-68
2024/02/18 07:26:10;;;;;;;14.60;6.60;;;9.90;16.60;;;;;;5072748;28;20071;-68
2024/02/18 07:28:36;;;;;;;15.05;6.55;;;9.90;12.80;;;;;;5072287;28;20056;-68
2024/02/18 07:31:01;;;;;;;10.80;6.60;;;10.00;8.40;;;;;;5072807;28;20064;-69
2024/02/18 07:33:27;;;;;;;12.38;6.57;;;10.00;5.50;;;;;;5072802;28;20470;-68
2024/02/18 07:35:53;;;;;;;11.50;5.97;;;9.90;3.00;;;;;;5073579;28;20444;-68
2024/02/18 07:38:18;;;;;;;10.35;5.47;;;9.90;2.70;;;;;;5076466;28;20119;-69
2024/02/18 07:40:44;;;;;;;14.20;7.15;;;10.00;1.00;;;;;;5076375;28;20029;-70
2024/02/18 07:43:09;;;;;;;10.57;5.95;;;10.00;1.00;;;;;;5076277;28;20085;-69
2024/02/18 07:45:35;;;;;;;12.52;6.45;;;9.90;1.00;;;;;;5076331;28;20036;-68
2024/02/18 07:48:01;;;;;;;11.63;6.20;;;9.90;1.00;;;;;;5076086;28;20474;-68
2024/02/18 07:50:26;;;;;;;11.93;6.15;;;9.90;1.00;;;;;;5076360;28;20026;-68
2024/02/18 07:52:52;;;;;;;15.93;6.10;;;9.90;1.00;;;;;;5076194;28;20032;-68
2024/02/18 07:55:18;;;;;;;14.52;6.40;;;9.90;1.00;;;;;;5076226;28;20036;-68
2024/02/18 07:57:43;;;;;;;12.13;6.53;;;9.90;1.00;;;;;;5076121;28;20029;-68
2024/02/18 08:00:09;;;;;;;11.65;5.75;;;9.90;1.00;;;;;;5075894;28;20029;-69
2024/02/18 08:02:35;;;;;;;12.10;5.80;;;9.90;1.00;;;;;;5075568;28;20486;-68
2024/02/18 08:05:00;;;;;;;10.23;5.47;;;9.90;1.00;;;;;;5076025;28;20024;-68
2024/02/18 08:07:27;;;;;;;13.68;6.22;;;9.90;7.00;;;;;;5075820;28;20481;-68
2024/02/18 08:09:52;;;;;;;11.52;5.53;;;9.80;8.10;;;;;;5075905;28;20501;-68
2024/02/18 08:12:18;;;;;;;8.25;5.05;;;9.80;12.80;;;;;;5075877;28;20024;-68
2024/02/18 08:14:44;;;;;;;8.55;4.70;;;9.80;1.30;;;;;;5075654;28;20052;-68
2024/02/18 08:17:10;;;;;;;13.88;5.97;;;9.80;9.00;;;;;;5075608;28;20072;-68
2024/02/18 08:19:35;;;;;;;11.95;4.90;;;9.80;21.80;;;;;;5075531;28;20044;-68
2024/02/18 08:22:01;;;;;;;8.32;5.55;;;9.80;18.30;;;;;;5075875;28;20032;-68
2024/02/18 08:24:27;;;;;;;7.95;4.70;;;9.80;17.10;;;;;;5075429;28;20059;-68
2024/02/18 08:26:53;;;;;;;10.80;4.63;;;9.70;21.60;;;;;;5075209;28;20036;-69
2024/02/18 08:29:18;;;;;;;8.85;4.50;;;9.70;31.00;;;;;;5075611;28;20031;-68
2024/02/18 08:31:44;;;;;;;7.95;4.55;;;9.70;26.60;;;;;;5075632;28;20475;-69
2024/02/18 08:34:11;;;;;;;7.60;4.22;;;9.60;45.90;;;;;;5075375;28;20025;-68
2024/02/18 08:36:37;;;;;;;9.32;4.60;;;9.60;52.70;;;;;;5075291;28;20493;-68
2024/02/18 08:39:02;;;;;;;12.52;4.57;;;9.50;56.60;;;;;;5075268;28;20089;-69
2024/02/18 08:41:28;;;;;;;10.77;4.63;;;9.60;52.20;;;;;;5074908;28;20105;-68
2024/02/18 08:43:54;;;;;;;9.90;4.97;;;9.50;67.70;;;;;;5075609;28;20445;-68
2024/02/18 08:46:19;;;;;;;6.72;4.43;;;9.50;71.70;;;;;;5075171;28;20029;-68
2024/02/18 08:48:46;;;;;;;9.88;4.53;;;9.40;80.30;;;;;;5074362;28;20559;-68
2024/02/18 08:51:11;;;;;;;9.18;4.47;;;9.40;67.70;;;;;;5074960;28;20107;-68
2024/02/18 08:53:38;;;;;;;8.30;4.30;;;9.40;75.70;;;;;;5075098;28;20550;-68
2024/02/18 08:56:07;;;;;;;6.70;4.40;;;9.40;81.10;;;;;;5075055;28;20031;-68
2024/02/18 08:58:34;;;;;;;6.65;4.47;;;9.30;93.40;;;;;;5074820;28;20535;-68
2024/02/18 09:01:00;;;;;;;10.95;5.07;;;9.30;95.70;;;;;;5074800;28;20028;-68
2024/02/18 09:03:25;;;;;;;8.02;4.07;;;9.30;97.50;;;;;;5074966;28;20036;-68
2024/02/18 09:05:51;;;;;;;10.07;5.05;;;9.30;97.90;;;;;;5074579;28;20017;-69
2024/02/18 09:08:17;;;;;;;7.15;5.00;;;9.30;99.90;;;;;;5074589;28;20037;-68
2024/02/18 09:10:42;;;;;;;12.52;4.85;;;9.20;99.90;;;;;;5074979;28;20445;-68
2024/02/18 09:13:08;;;;;;;7.70;4.97;;;9.20;99.90;;;;;;5074798;28;20032;-68
2024/02/18 09:15:34;;;;;;;11.38;5.60;;;9.20;99.90;;;;;;5074633;28;20054;-68
2024/02/18 09:17:59;;;;;;;9.65;5.95;;;9.20;99.90;;;;;;5074479;28;20032;-68
2024/02/18 09:20:25;;;;;;;11.15;5.90;;;9.20;99.90;;;;;;5074663;28;20037;-68
2024/02/18 09:22:51;;;;;;;8.52;5.63;;;9.10;99.90;;;;;;5074282;28;20032;-68
2024/02/18 09:25:17;;;;;;;10.95;5.32;;;9.10;99.90;;;;;;5074059;28;20521;-69
2024/02/18 09:27:42;;;;;;;13.10;6.20;;;9.10;99.90;;;;;;5074351;28;20033;-68
2024/02/18 09:30:08;;;;;;;11.52;5.68;;;9.10;99.90;;;;;;5074358;28;20421;-68
2024/02/18 09:32:34;;;;;;;11.23;6.15;;;9.10;99.90;;;;;;5074343;28;20092;-68
2024/02/18 09:34:59;;;;;;;13.07;5.63;;;9.10;99.90;;;;;;5074321;28;20028;-68
2024/02/18 09:37:25;;;;;;;9.63;5.55;;;9.10;99.90;;;;;;5074287;28;20032;-68
2024/02/18 09:39:51;;;;;;;10.07;5.97;;;9.10;99.90;;;;;;5073943;28;20044;-68
2024/02/18 09:42:16;;;;;;;10.38;5.38;;;9.00;99.90;;;;;;5074029;28;20029;-68
2024/02/18 09:44:45;;;;;;;13.00;5.38;;;9.00;99.90;;;;;;5073934;28;20390;-68
2024/02/18 09:47:13;;;;;;;10.75;5.22;;;9.00;99.90;;;;;;5073924;28;20020;-69
2024/02/18 09:49:39;;;;;;;11.00;6.55;;;9.00;99.90;;;;;;5072758;28;20099;-68
2024/02/18 09:52:06;;;;;;;9.32;5.38;;;9.00;99.90;;;;;;5072406;28;20403;-69
2024/02/18 09:54:34;;;;;;;12.32;5.65;;;9.10;99.90;;;;;;5074195;28;20025;-68
2024/02/18 09:57:00;;;;;;;15.68;6.00;;;9.00;99.90;;;;;;5073288;28;20047;-69
2024/02/18 09:59:27;;;;;;;12.93;5.80;;;9.00;99.90;;;;;;5073646;28;20043;-69
2024/02/18 10:01:57;;;;;;;11.30;6.00;;;9.00;99.90;;;;;;5073643;28;20035;-68
2024/02/18 10:04:23;;;;;;;12.63;5.93;;;9.00;99.90;;;;;;5073615;28;20035;-69
2024/02/18 10:06:49;;;;;;;11.90;5.90;;;9.10;99.90;;;;;;5073512;28;20029;-70
2024/02/18 10:09:14;;;;;;;9.70;6.00;;;9.10;99.90;;;;;;5073409;28;20097;-69
2024/02/18 10:11:40;;;;;;;12.88;6.18;;;9.10;99.90;;;;;;5073631;28;20020;-68
2024/02/18 10:14:06;;;;;;;12.48;6.00;;;9.20;99.90;;;;;;5073634;28;20040;-69
2024/02/18 10:16:33;;;;;;;12.30;6.03;;;9.20;99.90;;;;;;5073406;28;20391;-68
2024/02/18 10:18:58;;;;;;;13.82;6.15;;;9.20;99.90;;;;;;5073534;28;20028;-68
2024/02/18 10:21:25;;;;;;;10.90;5.60;;;9.20;99.90;;;;;;5073482;28;20115;-68
2024/02/18 10:23:51;;;;;;;8.95;5.78;;;9.20;99.90;;;;;;5073155;28;20052;-68
2024/02/18 10:26:17;;;;;;;9.85;5.40;;;9.20;99.90;;;;;;5073409;28;20074;-69
2024/02/18 10:28:43;;;;;;;9.85;5.60;;;9.20;99.90;;;;;;5073440;28;20028;-69
2024/02/18 10:31:09;;;;;;;8.38;5.80;;;9.30;99.90;;;;;;5073315;28;20048;-69
2024/02/18 10:33:35;;;;;;;10.57;6.25;;;9.30;99.90;;;;;;5073310;28;20031;-69
2024/02/18 10:36:11;;;;;;;9.88;5.65;;;9.30;99.90;;;;;;5073346;28;20489;-68
2024/02/18 10:38:44;;;;;;;13.07;6.45;;;9.30;99.90;;;;;;5073324;28;20020;-68
2024/02/18 10:41:15;;;;;;;11.25;5.97;;;9.30;99.90;;;;;;5073551;28;20025;-69
2024/02/18 10:43:48;;;;;;;13.25;6.30;;;9.40;99.90;;;;;;5073430;28;20466;-69
2024/02/18 10:46:19;;;;;;;11.60;5.78;;;9.40;99.90;;;;;;5072903;28;20531;-69
2024/02/18 10:48:49;;;;;;;8.88;5.25;;;9.40;99.90;;;;;;5073413;28;20024;-68
2024/02/18 10:51:19;;;;;;;9.00;5.15;;;9.40;99.90;;;;;;5073575;28;20055;-69
2024/02/18 10:53:49;;;;;;;9.52;5.47;;;9.40;99.90;;;;;;5073369;28;20036;-69
2024/02/18 10:56:20;;;;;;;12.82;5.90;;;9.50;99.90;;;;;;5073287;28;20063;-69
2024/02/18 10:58:59;;;;;;;8.25;4.40;;;9.50;99.90;;;;;;5073105;28;20028;-69
2024/02/18 11:01:29;;;;;;;7.80;4.72;;;9.50;99.90;;;;;;5073238;28;20141;-69
2024/02/18 11:03:59;;;;;;;7.57;4.80;;;9.60;99.90;;;;;;5073198;28;20025;-69
2024/02/18 11:06:25;;;;;;;8.85;5.07;;;9.60;99.90;;;;;;5072917;28;20437;-70
2024/02/18 11:08:54;;;;;;;8.25;5.00;;;9.60;99.90;;;;;;5073069;28;20086;-69
2024/02/18 11:11:21;;;;;;;6.20;4.25;;;9.60;99.90;;;;;;5073763;28;20478;-69
2024/02/18 11:13:47;;;;;;;7.53;4.35;;;9.60;99.90;;;;;;5077262;28;20039;-69
2024/02/18 11:16:15;;;;;;;9.95;4.18;;;9.60;99.90;;;;;;5077131;28;20071;-69
2024/02/18 11:18:42;;;;;;;9.07;4.20;;;9.70;99.90;;;;;;5077151;28;20135;-68
2024/02/18 11:21:08;;;;;;;6.65;4.30;;;9.70;99.90;;;;;;5077090;28;20016;-69
2024/02/18 11:23:34;;;;;;;7.68;3.95;;;9.60;99.90;;;;;;5076968;28;20525;-69
2024/02/18 11:26:01;;;;;;;9.35;3.92;;;9.60;99.90;;;;;;5076571;28;20570;-69
2024/02/18 11:28:26;;;;;;;8.65;4.32;;;9.60;99.90;;;;;;5076769;28;20067;-69
2024/02/18 11:30:52;;;;;;;6.07;4.13;;;9.60;99.90;;;;;;5076856;28;20066;-69
2024/02/18 11:33:19;;;;;;;7.97;3.72;;;9.60;99.90;;;;;;5076258;28;20031;-69
2024/02/18 11:35:45;;;;;;;7.38;4.10;;;9.60;99.90;;;;;;5076767;28;20505;-69
2024/02/18 11:38:11;;;;;;;6.68;3.63;;;9.60;99.90;;;;;;5076509;28;20025;-69
2024/02/18 11:40:45;;;;;;;5.72;3.80;;;9.60;99.90;;;;;;5076698;28;20036;-69
2024/02/18 11:43:10;;;;;;;8.75;3.85;;;9.70;99.90;;;;;;5076645;28;20438;-68
2024/02/18 11:45:44;;;;;;;6.75;4.00;;;9.70;99.90;;;;;;5076568;28;20040;-68
2024/02/18 11:48:10;;;;;;;9.48;4.68;;;9.70;99.90;;;;;;5076084;28;20028;-68
2024/02/18 11:50:36;;;;;;;6.05;4.20;;;9.70;99.90;;;;;;5076383;28;20078;-68
2024/02/18 11:53:03;;;;;;;8.88;3.90;;;9.70;99.90;;;;;;5076564;28;20386;-68
2024/02/18 11:55:28;;;;;;;8.65;3.78;;;9.70;99.90;;;;;;5075882;28;20117;-68
2024/02/18 11:57:54;;;;;;;6.18;3.78;;;9.70;99.90;;;;;;5076140;28;20045;-68
2024/02/18 12:00:20;;;;;;;6.50;3.58;;;9.70;99.90;;;;;;5076306;28;20075;-68
2024/02/18 12:02:51;;;;;;;7.55;3.33;;;9.70;99.90;;;;;;5076064;28;20041;-68
2024/02/18 12:05:17;;;;;;;8.75;3.58;;;9.60;99.90;;;;;;5076358;28;20494;-68
2024/02/18 12:07:46;;;;;;;6.32;3.00;;;9.50;99.90;;;;;;5076108;28;20505;-68
2024/02/18 12:10:12;;;;;;;6.57;3.38;;;9.50;99.90;;;;;;5076029;28;20390;-68
2024/02/18 12:12:39;;;;;;;9.50;3.45;;;9.50;99.90;;;;;;5076204;28;20027;-69
2024/02/18 12:15:05;;;;;;;8.05;3.63;;;9.60;99.90;;;;;;5075947;28;20024;-68
2024/02/18 12:17:30;;;;;;;5.55;3.20;;;9.60;99.90;;;;;;5076122;28;20025;-68
2024/02/18 12:19:56;;;;;;;6.22;3.15;;;9.50;99.90;;;;;;5075732;28;20363;-68
2024/02/18 12:22:23;;;;;;;5.18;3.55;;;9.50;99.90;;;;;;5074646;28;20040;-68
2024/02/18 12:24:50;;;;;;;7.93;3.72;;;9.50;99.90;;;;;;5075580;28;20080;-68
2024/02/18 12:27:18;;;;;;;9.20;3.60;;;9.50;99.90;;;;;;5075648;28;20036;-68
2024/02/18 12:29:44;;;;;;;8.88;3.90;;;9.50;99.90;;;;;;5075910;28;20444;-68
2024/02/18 12:32:10;;;;;;;8.50;3.72;;;9.50;99.90;;;;;;5075875;28;20525;-68
2024/02/18 12:34:36;;;;;;;8.52;4.10;;;9.50;99.90;;;;;;5075939;28;20385;-68
2024/02/18 12:37:02;;;;;;;8.88;3.80;;;9.50;99.90;;;;;;5075774;28;20032;-68